Nearby METAR Reports

 

PAWD - Seward, Alaska, USA
Distance from station: WNW 16mi, 27km
Updated: 12/13/2018 3:53pm
Clear
Clear
 Wind from N
Wind: N 9 mph , 15 km/h
Temperature: 18°F , -8°C
Wind Chill: 7°F , -14°C
Dew Point: 10°F , -12°C
Humidity: 73%
Barometer: 29.40 inHg , 995.6 hPa
Clouds: Clear
Visibility: 10 miles , 16 km
2018/12/14 00:53 PAWD 140053Z AUTO 36008KT 10SM CLR M08/M12 A2940 RMK AO2 SLP955 T10831122 TSNO
PATO - Portage Glacier, Alaska, USA
Distance from station: N 54mi, 87km
Updated: 12/13/2018 3:53pm
Clear
Clear
 Wind from calm
Wind: Calm
Temperature: 10°F , -12°C
Dew Point: 7°F , -14°C
Humidity: 85%
Barometer: 29.41 inHg , 995.9 hPa
Clouds: Clear
Visibility: 10 miles , 16 km
2018/12/14 00:53 PATO 140053Z AUTO 00000KT 10SM CLR M12/M14 A2941 RMK AO2 SLP960 T11221139 TSNO
 
PASX - Soldotna, Alaska, USA
Distance from station: WNW 77mi, 124km
Updated: 12/13/2018 3:56pm
Clear
Clear
 Wind from calm
Wind: Calm
Temperature: 5°F , -15°C
Dew Point: 1°F , -17°C
Humidity: 85%
Barometer: 29.39 inHg , 995.3 hPa
Clouds: Clear
Visibility: 10 miles , 16 km
2018/12/14 00:56 PASX 140056Z AUTO 00000KT 10SM CLR M15/M17 A2939 RMK AO2 SLP961 T11501167 FZRANO
PAEN - Kenai, Alaska, USA
Distance from station: WNW 86mi, 139km
Updated: 12/13/2018 3:53pm
Few Clouds
Few Clouds
 Wind from ENE
Wind: ENE 5 mph , 7 km/h
Temperature: 12°F , -11°C
Wind Chill: 4°F , -16°C
Dew Point: 12°F , -11°C
Humidity: 100%
Barometer: 29.37 inHg , 994.6 hPa
Clouds: Few Clouds
Visibility: 10 miles , 16 km
Cloud details: Few Clouds 3900 ft
2018/12/14 00:53 PAEN 140053Z 07004KT 10SM FEW039 M11/M11 A2937 RMK AO2 SLP947 T11061111
 
PANC - Anchorage Intl, Alaska, USA
Distance from station: NNW 88mi, 141km
Updated: 12/13/2018 3:53pm
Mostly cloudy
Mostly cloudy
 Wind from SE
Wind: SE 3 mph , 6 km/h
Temperature: 23°F , -5°C
Dew Point: 10°F , -12°C
Humidity: 58%
Barometer: 29.37 inHg , 994.6 hPa
Clouds: Mostly cloudy
Visibility: 10 miles , 16 km
Cloud details: Few Clouds 900 ft
Mostly cloudy 3800 ft
Mostly cloudy 6000 ft
2018/12/14 00:53 PANC 140053Z 14003KT 10SM FEW009 BKN038 BKN060 M05/M12 A2937 RMK AO2 SLP947 VIRGA NE T10501117 $
PALH - Anchorage/Lake H, Alaska, USA
Distance from station: NNW 88mi, 142km
Updated: 12/13/2018 3:53pm
Overcast
Overcast
 Wind from SE
Wind: SE 6 mph , 9 km/h
Temperature: 19°F , -7°C
Wind Chill: 11°F , -12°C
Dew Point: 9°F , -13°C
Humidity: 63%
Barometer: 29.38 inHg , 994.9 hPa
Clouds: Overcast
Visibility: 10 miles , 16 km
Cloud details: Overcast 4300 ft
2018/12/14 00:53 PALH 140053Z 13005KT 10SM OVC043 M07/M13 A2938 RMK AO2 SLP950 T10671128
 
PAMR - Anchorage/Merril, Alaska, USA
Distance from station: NNW 89mi, 143km
Updated: 12/13/2018 3:53pm
Mostly cloudy
Mostly cloudy
 Wind from ESE
Wind: ESE 5 mph , 7 km/h
Temperature: 18°F , -8°C
Wind Chill: 11°F , -12°C
Dew Point: 9°F , -13°C
Humidity: 68%
Barometer: 29.37 inHg , 994.6 hPa
Clouds: Mostly cloudy
Visibility: 10 miles , 16 km
Cloud details: Mostly cloudy 4600 ft
2018/12/14 00:53 PAMR 140053Z 12004KT 10SM BKN046 M08/M13 A2937 RMK AO2 SLP948 T10781133
PAFR - Fort Richardson, Alaska, USA
Distance from station: NNW 90mi, 145km
Updated: 12/13/2018 3:58pm

 Wind from SE
Wind: SE 6 mph , 9 km/h
Visibility: 10 miles , 16 km
2018/12/14 00:58 PAFR 140058Z AUTO 13005KT 10SM -PL CLR M08/M13 A2933 RMK AO2 SLP944 P0000 T10841135
 
PAHO - Homer, Alaska, USA
Distance from station: WSW 90mi, 146km
Updated: 12/13/2018 3:53pm
Clear
Clear
 Wind from SE
Wind: SE 9 mph , 15 km/h
Temperature: 27°F , -3°C
Wind Chill: 18°F , -8°C
Dew Point: 10°F , -12°C
Humidity: 50%
Barometer: 29.35 inHg , 993.9 hPa
Clouds: Clear
Visibility: 10 miles , 16 km
2018/12/14 00:53 PAHO 140053Z 13008KT 10SM CLR M03/M12 A2935 RMK AO2 SLP940 T10331117
PAED - Elmendorf Afb, Alaska, USA
Distance from station: NNW 91mi, 146km
Updated: 12/13/2018 3:56pm
Mostly cloudy
Mostly cloudy
 Wind from E
Wind: E 7 mph , 11 km/h
Temperature: 16°F , -9°C
Wind Chill: 6°F , -14°C
Dew Point: 14°F , -10°C
Humidity: 93%
Barometer: 29.36 inHg , 994.2 hPa
Clouds: Mostly cloudy
Visibility: 10 miles , 16 km
Cloud details: Mostly cloudy 4500 ft
2018/12/14 00:56 PAED 140056Z AUTO 09006KT 10SM BKN045 M09/M10 A2936 RMK AO2 SLP941 T10911103
 
PABV - Birchwood, Alaska, USA
Distance from station: N 99mi, 160km
Updated: 12/13/2018 3:56pm
Mostly cloudy
Mostly cloudy
 Wind from E
Wind: E 8 mph , 13 km/h
Temperature: 16°F , -9°C
Wind Chill: 5°F , -15°C
Dew Point: 10°F , -12°C
Humidity: 79%
Barometer: 29.40 inHg , 995.6 hPa
Clouds: Mostly cloudy
Visibility: 10 miles , 16 km
Cloud details: Mostly cloudy 5000 ft
2018/12/14 00:56 PABV 140056Z AUTO 09007KT 10SM BKN050 M09/M12 A2940 RMK AO2 SNB34E44 SLP963 P0000 T10891117 FZRANO
PASO - Seldovia, Alaska, USA
Distance from station: WSW 101mi, 163km
Updated: 12/13/2018 3:53pm
Clear
Clear
 Wind from S
Wind: S 6 mph , 9 km/h
Temperature: 19°F , -7°C
Wind Chill: 11°F , -12°C
Dew Point: 10°F , -12°C
Humidity: 68%
Barometer: 29.36 inHg , 994.2 hPa
Clouds: Clear
Visibility: 10 miles , 16 km
2018/12/14 00:53 PASO 140053Z AUTO 18005KT 10SM CLR M07/M12 A2936 RMK AO2 SLP942 T10671117 TSNO
 
PAMD - Middleton Island, Alaska, USA
Distance from station: ESE 102mi, 164km
Updated: 12/13/2018 3:51pm
Overcast
Overcast
 Wind from SW
Wind: SW 8 mph , 13 km/h
Temperature: 32°F , 0°C
Wind Chill: 25°F , -4°C
Dew Point: 19°F , -7°C
Humidity: 60%
Barometer: 29.41 inHg , 995.9 hPa
Clouds: Overcast
Visibility: 10 miles , 16 km
Cloud details: Overcast 3500 ft
2018/12/14 00:51 PAMD 140051Z AUTO 23007KT 10SM OVC035 00/M07 A2941 RMK AO2 SLP949 T00001067 FZRANO
PAAQ - Palmer, Alaska, USA
Distance from station: N 111mi, 178km
Updated: 12/13/2018 3:53pm
Overcast
Overcast
 Wind from ENE
Wind: ENE 3 mph , 6 km/h
Temperature: 16°F , -9°C
Dew Point: 12°F , -11°C
Humidity: 86%
Barometer: 29.39 inHg , 995.3 hPa
Clouds: Overcast
Visibility: 10 miles , 16 km
Cloud details: Few Clouds 4900 ft
Overcast 7500 ft
2018/12/14 00:53 PAAQ 140053Z 07003KT 10SM FEW049 OVC075 M09/M11 A2939 RMK AO2 SNB34E44 SLP956 P0000 T10941106
 
PAVD - Valdez, Alaska, USA
Distance from station: NE 122mi, 196km
Updated: 12/13/2018 3:56pm
Light snow, Mist, Mostly cloudy
Light snow, Mist, Mostly cloudy
 Wind from calm
Wind: Calm
Temperature: 25°F , -4°C
Dew Point: 21°F , -6°C
Humidity: 86%
Barometer: 29.39 inHg , 995.3 hPa
Summary: Light snow, Mist
Clouds: Mostly cloudy
Visibility: 5 miles , 8 km
Cloud details: Few Clouds 100 ft
Mostly cloudy 3300 ft
Mostly cloudy 15000 ft
2018/12/14 00:56 PAVD 140056Z 00000KT 5SM -SN BR FEW001 BKN033 BKN150 M04/M06 A2939 RMK AO2 SLP976 P0000 T10441056
PACV - Cordova, Alaska, USA
Distance from station: ENE 125mi, 201km
Updated: 12/13/2018 3:53pm
Partly cloudy
Partly cloudy
 Wind from ENE
Wind: ENE 3 mph , 6 km/h
Temperature: 25°F , -4°C
Dew Point: 19°F , -7°C
Humidity: 80%
Barometer: 29.42 inHg , 996.3 hPa
Clouds: Partly cloudy
Visibility: 10 miles , 16 km
Cloud details: Partly cloudy 4500 ft
2018/12/14 00:53 PACV 140053Z 06003KT 10SM SCT045 M04/M07 A2942 RMK AO2 SLP962 T10391067
 
PAZK - Eureka, Alaska, USA
Distance from station: NNE 147mi, 237km
Updated: 09/10/2018 9:56am
NOT Current
Clear
Clear
 Wind from calm
Wind: Calm
Temperature: 46°F , 8°C
Dew Point: 28°F , -2°C
Humidity: 50%
Barometer: 30.00 inHg , 1015.9 hPa
Clouds: Clear
Visibility: 10 miles , 16 km
2018/09/10 17:56 PAZK 101756Z AUTO 00000KT 10SM CLR 08/M02 A3000 RMK AO2 SLP184 T00831017 10089 20039 53003
PATK - Talkeetna, Alaska, USA
Distance from station: NNW 163mi, 262km
Updated: 12/13/2018 3:53pm
Overcast
Overcast
 Wind from calm
Wind: Calm
Temperature: 12°F , -11°C
Dew Point: 10°F , -12°C
Humidity: 92%
Barometer: 29.37 inHg , 994.6 hPa
Clouds: Overcast
Visibility: 10 miles , 16 km
Cloud details: Overcast 5000 ft
2018/12/14 00:53 PATK 140053Z 00000KT 10SM OVC050 M11/M12 A2937 RMK AO2 SLP955 T11061122 $
 
PALJ - Port Alsworth, Alaska, USA
Distance from station: W 183mi, 295km
Updated: 12/13/2018 2:55pm
NOT Current
Partly cloudy
Partly cloudy
 Wind from SE
Wind: SE 6 mph , 9 km/h
Temperature: 9°F , -13°C
Wind Chill: -1°F , -18°C
Dew Point: 7°F , -14°C
Humidity: 92%
Barometer: 29.35 inHg , 993.9 hPa
Clouds: Partly cloudy
Visibility: 40 miles , 64 km
Cloud details: Partly cloudy 20000 ft
2018/12/13 23:55 PALJ 132355Z 13005KT 40SM SCT200 M13/M14 A2935 RMK EST PASS OPN NOSPECI
PAGK - Gulkana, Alaska, USA
Distance from station: NE 190mi, 306km
Updated: 12/13/2018 3:53pm
Overcast
Overcast
 Wind from calm
Wind: Calm
Temperature: -0°F , -18°C
Dew Point: -2°F , -19°C
Humidity: 92%
Barometer: 29.30 inHg , 992.2 hPa
Clouds: Overcast
Visibility: 10 miles , 16 km
Cloud details: Overcast 8000 ft
2018/12/14 00:53 PAGK 140053Z AUTO 00000KT 10SM OVC080 M18/M19 A2930 RMK AO2 SLP979 T11781189 TSNO
 
KLVK - Livermore, California, USA
Distance from station: NNE 31mi, 51km
Updated: 12/13/2018 3:53pm
Haze, Clear
Haze, Clear
 Wind from ENE
Wind: ENE 8 mph , 13 km/h
Temperature: 52°F , 11°C
Dew Point: 45°F , 7°C
Humidity: 77%
Barometer: 30.17 inHg , 1021.7 hPa
Summary: Haze
Clouds: Clear
Visibility: 3 miles , 5 km
2018/12/14 00:53 KLVK 140053Z 06007KT 3SM HZ CLR 11/07 A3017 RMK AO2 SLP217 T01110072

USA Weather Finder






Flag Counter